createdAt,value
2023-01-01T00:02:11.294Z,14.50
2023-01-01T00:07:13.439Z,14.50
2023-01-01T00:12:15.673Z,14.50
2023-01-01T00:17:18.001Z,14.50
2023-01-01T00:22:54.078Z,14.50
2023-01-01T00:27:43.159Z,14.50
2023-01-01T00:32:56.142Z,14.50
2023-01-01T00:38:01.376Z,14.50
2023-01-01T00:43:03.489Z,14.40
2023-01-01T00:48:05.850Z,14.50
2023-01-01T00:53:08.037Z,14.60
2023-01-01T00:58:11.087Z,14.50
2023-01-01T01:03:28.167Z,14.60
2023-01-01T01:08:34.052Z,14.50
2023-01-01T01:13:36.893Z,14.50
2023-01-01T01:18:39.292Z,14.40
2023-01-01T01:23:41.549Z,14.30
2023-01-01T01:28:49.274Z,14.40
2023-01-01T01:33:52.129Z,14.70
2023-01-01T01:38:56.446Z,15.00
2023-01-01T01:44:49.364Z,15.10
2023-01-01T01:50:01.500Z,15.00
2023-01-01T01:55:08.037Z,15.00
2023-01-01T02:00:11.869Z,15.20
2023-01-01T02:05:14.440Z,14.60
2023-01-01T02:10:16.722Z,14.50
2023-01-01T02:15:19.486Z,14.60
2023-01-01T02:20:45.984Z,14.70
2023-01-01T02:26:38.815Z,14.60
2023-01-01T02:31:50.688Z,14.90
2023-01-01T02:36:59.370Z,15.00
2023-01-01T02:42:05.982Z,15.00
2023-01-01T02:47:18.378Z,14.50
2023-01-01T02:53:03.195Z,14.50
2023-01-01T02:59:03.064Z,14.40
2023-01-01T03:04:29.412Z,14.40
2023-01-01T03:09:51.756Z,14.40
2023-01-01T03:15:12.426Z,14.60
2023-01-01T03:20:23.495Z,14.50
2023-01-01T03:25:31.573Z,14.30
2023-01-01T03:30:38.182Z,14.50
2023-01-01T03:36:23.539Z,14.50
2023-01-01T03:41:37.805Z,14.30
2023-01-01T03:46:40.384Z,14.30
2023-01-01T03:52:14.813Z,14.40
2023-01-01T03:57:42.654Z,14.60
2023-01-01T04:03:01.053Z,13.70
2023-01-01T04:08:04.693Z,13.70
2023-01-01T04:13:07.059Z,13.80
2023-01-01T04:18:09.333Z,13.60
2023-01-01T04:23:11.339Z,13.60
2023-01-01T04:28:13.362Z,13.40
2023-01-01T04:33:15.681Z,13.50
2023-01-01T04:38:17.706Z,13.70
2023-01-01T04:43:19.742Z,13.90
2023-01-01T04:48:21.977Z,14.00
2023-01-01T04:53:24.799Z,14.00
2023-01-01T04:58:28.441Z,14.10
2023-01-01T05:03:30.836Z,14.00
2023-01-01T05:08:36.576Z,14.10
2023-01-01T05:13:42.486Z,14.00
2023-01-01T05:18:46.090Z,14.10
2023-01-01T05:23:49.457Z,13.80
2023-01-01T05:28:51.773Z,13.80
2023-01-01T05:33:54.883Z,13.70
2023-01-01T05:38:58.867Z,13.60
2023-01-01T05:44:03.874Z,13.70
2023-01-01T05:49:05.980Z,13.70
2023-01-01T05:59:12.140Z,13.60
2023-01-01T06:04:14.706Z,13.60
2023-01-01T06:09:16.803Z,13.60
2023-01-01T06:14:18.829Z,13.50
2023-01-01T06:19:20.902Z,13.50
2023-01-01T06:24:22.962Z,13.40
2023-01-01T06:29:25.053Z,13.40
2023-01-01T06:34:27.515Z,13.30
2023-01-01T06:39:29.640Z,13.30
2023-01-01T06:44:31.865Z,13.10
2023-01-01T06:49:34.009Z,13.20
2023-01-01T06:54:35.992Z,13.10
2023-01-01T06:59:37.974Z,13.20
2023-01-01T07:04:40.006Z,13.10
2023-01-01T07:09:42.354Z,13.10
2023-01-01T07:14:44.411Z,13.10
2023-01-01T07:19:46.452Z,13.20
2023-01-01T07:24:49.111Z,13.10
2023-01-01T07:29:51.103Z,13.10
2023-01-01T07:34:53.169Z,13.20
2023-01-01T07:39:55.427Z,13.20
2023-01-01T07:44:57.819Z,13.10
2023-01-01T07:50:02.897Z,13.20
2023-01-01T07:55:05.343Z,13.30
2023-01-01T08:00:09.198Z,13.60
2023-01-01T08:05:14.556Z,13.70
2023-01-01T08:10:20.240Z,13.70
2023-01-01T08:15:22.261Z,13.70
2023-01-01T08:20:24.674Z,13.70
2023-01-01T08:25:27.054Z,13.60
2023-01-01T08:30:29.786Z,13.70
2023-01-01T08:35:31.819Z,13.80
2023-01-01T08:40:37.658Z,13.70
2023-01-01T08:45:39.801Z,13.60
2023-01-01T08:50:41.854Z,13.60
2023-01-01T08:55:45.216Z,13.70
2023-01-01T09:00:47.278Z,13.90
2023-01-01T09:05:49.385Z,14.10
2023-01-01T09:10:52.797Z,14.10
2023-01-01T09:15:55.476Z,14.30
2023-01-01T09:20:58.059Z,14.40
2023-01-01T09:26:09.140Z,14.40
2023-01-01T09:31:11.186Z,14.50
2023-01-01T09:36:18.978Z,14.60
2023-01-01T09:41:46.310Z,14.80
2023-01-01T09:46:49.121Z,14.90
2023-01-01T09:51:58.663Z,15.10
2023-01-01T09:57:06.691Z,14.80
2023-01-01T10:02:37.419Z,15.10
2023-01-01T10:07:58.268Z,15.20
2023-01-01T10:13:18.357Z,15.40
2023-01-01T10:18:28.235Z,15.70
2023-01-01T11:51:35.274Z,15.60
2023-01-01T11:56:40.087Z,21.60
2023-01-01T12:02:03.536Z,21.80
2023-01-01T12:07:17.172Z,22.50
2023-01-01T12:12:31.068Z,22.80
2023-01-01T12:17:44.089Z,23.90
2023-01-01T12:22:46.111Z,24.50
2023-01-01T15:31:01.020Z,25.00
2023-01-01T15:36:04.460Z,15.10
2023-01-01T15:41:46.463Z,14.90
2023-01-01T15:46:53.716Z,15.00
2023-01-01T15:52:06.581Z,15.10
2023-01-01T15:57:24.273Z,14.90
2023-01-01T16:02:33.873Z,14.80
2023-01-01T16:07:36.108Z,15.10
2023-01-01T16:12:38.192Z,15.50
2023-01-01T16:17:40.444Z,15.70
2023-01-01T16:22:43.361Z,15.60
2023-01-01T16:27:46.146Z,15.70
2023-01-01T16:32:49.310Z,15.70
2023-01-01T16:37:51.665Z,15.80
2023-01-01T16:42:53.873Z,15.70
2023-01-01T16:47:56.197Z,15.70
2023-01-01T16:52:58.791Z,15.60
2023-01-01T16:58:38.180Z,15.10
2023-01-01T17:03:23.148Z,15.20
2023-01-01T17:08:25.304Z,15.20
2023-01-01T17:13:27.590Z,15.20
2023-01-01T17:18:55.066Z,15.20
2023-01-01T17:23:53.463Z,15.20
2023-01-01T17:29:00.684Z,15.20
2023-01-01T17:34:04.279Z,15.20
2023-01-01T17:39:07.105Z,15.10
2023-01-01T17:44:11.248Z,15.10
2023-01-01T17:49:13.444Z,15.10
2023-01-01T17:54:15.795Z,15.00
2023-01-01T17:59:18.285Z,14.80
2023-01-01T18:04:20.913Z,14.70
2023-01-01T18:09:23.088Z,14.60
2023-01-01T18:14:25.571Z,14.60
2023-01-01T18:19:28.376Z,14.40
2023-01-01T18:24:30.718Z,14.30
2023-01-01T18:29:32.788Z,14.40
2023-01-01T18:34:34.884Z,14.40
2023-01-01T18:39:41.911Z,14.40
2023-01-01T18:44:44.388Z,14.70
2023-01-01T18:49:53.602Z,14.50
2023-01-01T18:55:14.460Z,14.40
2023-01-01T19:00:19.625Z,14.50
2023-01-01T19:05:27.577Z,14.70
2023-01-01T19:10:49.090Z,14.80
2023-01-01T19:16:02.896Z,14.90
2023-01-01T19:21:11.468Z,14.70
2023-01-01T19:26:24.304Z,14.80
2023-01-01T19:31:26.652Z,14.90
2023-01-01T19:36:29.279Z,15.10
2023-01-01T19:41:31.553Z,15.20
2023-01-01T19:46:33.897Z,15.20
2023-01-01T19:51:35.966Z,15.10
2023-01-01T19:56:37.997Z,15.10
2023-01-01T20:01:40.211Z,14.80
2023-01-01T20:06:42.539Z,14.70
2023-01-01T20:11:47.071Z,14.90
2023-01-01T20:16:53.512Z,14.80
2023-01-01T20:22:14.410Z,14.90
2023-01-01T20:27:18.121Z,14.70
2023-01-01T20:32:21.214Z,14.60
2023-01-01T20:37:38.811Z,14.50
2023-01-01T20:42:40.886Z,14.40
2023-01-01T20:47:42.989Z,14.40
2023-01-01T20:52:45.183Z,14.50
2023-01-01T20:57:47.277Z,14.40
2023-01-01T21:02:49.423Z,14.60
2023-01-01T21:07:51.509Z,14.60
2023-01-01T21:12:53.584Z,14.60
2023-01-01T21:17:55.882Z,14.70
2023-01-01T21:23:00.612Z,14.80
2023-01-01T21:28:02.731Z,14.90
2023-01-01T21:33:17.298Z,15.00
2023-01-01T21:38:28.199Z,15.00
2023-01-01T21:43:50.174Z,15.10
2023-01-01T21:49:13.144Z,15.20
2023-01-01T21:54:37.989Z,15.20
2023-01-01T21:59:47.239Z,15.10
2023-01-01T22:04:51.164Z,15.30
2023-01-01T22:09:57.065Z,15.40
2023-01-01T22:15:29.136Z,15.60
2023-01-01T22:20:37.178Z,15.50
2023-01-01T22:25:39.337Z,15.50
2023-01-01T22:30:43.926Z,15.40
2023-01-01T22:35:46.316Z,15.40
2023-01-01T22:40:51.861Z,15.50
2023-01-01T22:45:54.559Z,15.50
2023-01-01T22:51:02.682Z,15.60
2023-01-01T22:56:05.273Z,15.60
2023-01-01T23:01:07.738Z,15.60
2023-01-01T23:06:09.958Z,15.70
2023-01-01T23:11:12.131Z,15.70
2023-01-01T23:16:14.304Z,15.70
2023-01-01T23:21:27.138Z,15.70
2023-01-01T23:26:29.746Z,15.70
2023-01-01T23:31:33.780Z,15.70
2023-01-01T23:36:37.718Z,15.70
2023-01-01T23:41:39.769Z,15.80
2023-01-01T23:46:41.946Z,15.80
2023-01-01T23:51:44.468Z,15.90
2023-01-01T23:56:46.554Z,16.20
